createdAt,value
2022-09-12T00:01:23.326Z,72.61
2022-09-12T00:03:55.061Z,72.51
2022-09-12T00:06:24.724Z,72.57
2022-09-12T00:08:53.916Z,72.90
2022-09-12T00:11:20.417Z,72.59
2022-09-12T00:13:47.147Z,73.07
2022-09-12T00:16:22.425Z,72.85
2022-09-12T00:18:49.157Z,72.69
2022-09-12T00:21:17.764Z,72.91
2022-09-12T00:23:45.499Z,72.96
2022-09-12T00:26:12.460Z,73.40
2022-09-12T00:28:40.135Z,73.14
2022-09-12T00:31:09.390Z,72.98
2022-09-12T00:33:36.005Z,73.27
2022-09-12T00:36:15.413Z,73.10
2022-09-12T00:38:43.714Z,73.17
2022-09-12T00:41:15.672Z,73.15
2022-09-12T00:43:44.744Z,73.28
2022-09-12T00:46:17.112Z,73.38
2022-09-12T00:48:52.132Z,73.15
2022-09-12T00:51:19.937Z,73.67
2022-09-12T00:53:48.702Z,73.61
2022-09-12T00:56:17.718Z,73.97
2022-09-12T00:58:51.097Z,74.33
2022-09-12T01:01:17.991Z,73.95
2022-09-12T01:03:44.803Z,73.96
2022-09-12T01:06:17.571Z,73.87
2022-09-12T01:08:46.797Z,73.64
2022-09-12T01:11:15.875Z,73.68
2022-09-12T01:13:44.052Z,72.63
2022-09-12T01:16:10.814Z,73.27
2022-09-12T01:19:01.275Z,73.08
2022-09-12T01:21:43.756Z,73.49
2022-09-12T01:24:19.415Z,73.41
2022-09-12T01:27:14.796Z,73.57
2022-09-12T01:30:05.878Z,73.90
2022-09-12T01:32:46.929Z,73.26
2022-09-12T01:35:28.743Z,73.99
2022-09-12T01:38:06.263Z,74.26
2022-09-12T01:40:38.546Z,73.94
2022-09-12T01:43:31.830Z,73.98
2022-09-12T01:46:13.768Z,74.04
2022-09-12T01:48:47.945Z,74.14
2022-09-12T01:51:27.772Z,73.77
2022-09-12T01:54:06.947Z,73.90
2022-09-12T01:56:38.098Z,73.22
2022-09-12T01:59:10.661Z,73.86
2022-09-12T02:01:46.753Z,74.01
2022-09-12T02:04:18.990Z,74.06
2022-09-12T02:06:52.227Z,74.31
2022-09-12T02:09:26.323Z,74.48
2022-09-12T02:11:58.516Z,74.12
2022-09-12T02:14:29.634Z,74.08
2022-09-12T02:17:01.367Z,73.69
2022-09-12T02:19:37.317Z,74.10
2022-09-12T02:22:05.736Z,74.13
2022-09-12T02:24:39.334Z,74.23
2022-09-12T02:27:16.623Z,74.02
2022-09-12T02:29:44.903Z,74.16
2022-09-12T02:32:15.485Z,74.52
2022-09-12T02:34:59.909Z,74.41
2022-09-12T02:37:38.760Z,74.33
2022-09-12T02:40:07.089Z,74.41
2022-09-12T02:42:33.606Z,74.46
2022-09-12T02:45:00.158Z,74.69
2022-09-12T02:47:32.354Z,74.73
2022-09-12T02:49:59.632Z,74.60
2022-09-12T02:52:28.657Z,74.98
2022-09-12T02:54:57.213Z,74.40
2022-09-12T02:57:24.315Z,74.32
2022-09-12T02:59:58.985Z,74.28
2022-09-12T03:02:53.713Z,74.28
2022-09-12T03:05:29.285Z,74.85
2022-09-12T03:08:22.540Z,74.61
2022-09-12T03:11:06.094Z,74.99
2022-09-12T03:13:32.492Z,74.90
2022-09-12T03:15:58.874Z,74.72
2022-09-12T03:18:46.288Z,74.43
2022-09-12T03:21:42.316Z,74.60
2022-09-12T03:24:25.026Z,74.69
2022-09-12T03:26:54.859Z,74.97
2022-09-12T03:29:23.695Z,75.08
2022-09-12T03:31:58.228Z,74.63
2022-09-12T03:34:26.919Z,74.80
2022-09-12T03:36:57.271Z,74.24
2022-09-12T03:39:26.378Z,74.38
2022-09-12T03:41:54.082Z,74.20
2022-09-12T03:44:20.748Z,74.63
2022-09-12T03:46:47.245Z,74.83
2022-09-12T03:49:13.915Z,74.79
2022-09-12T03:51:40.752Z,74.49
2022-09-12T03:54:07.289Z,74.52
2022-09-12T03:56:34.475Z,75.05
2022-09-12T03:59:01.339Z,75.57
2022-09-12T04:01:27.955Z,75.11
2022-09-12T04:03:54.468Z,75.33
2022-09-12T04:06:22.992Z,75.41
2022-09-12T04:08:52.331Z,75.00
2022-09-12T04:11:20.645Z,75.06
2022-09-12T04:13:47.385Z,75.23
2022-09-12T04:16:15.793Z,74.97
2022-09-12T04:18:43.833Z,74.54
2022-09-12T04:21:21.865Z,74.16
2022-09-12T04:23:48.915Z,74.37
2022-09-12T04:26:17.428Z,74.65
2022-09-12T04:28:46.262Z,74.95
2022-09-12T04:31:17.816Z,74.65
2022-09-12T04:33:45.337Z,74.67
2022-09-12T04:36:17.426Z,74.67
2022-09-12T04:38:46.307Z,74.82
2022-09-12T04:41:15.522Z,75.02
2022-09-12T04:43:43.181Z,74.93
2022-09-12T04:46:11.536Z,75.14
2022-09-12T04:48:38.826Z,75.22
2022-09-12T04:51:23.433Z,75.17
2022-09-12T04:53:52.686Z,74.48
2022-09-12T04:56:20.067Z,74.79
2022-09-12T04:58:46.873Z,75.08
2022-09-12T05:01:19.224Z,74.68
2022-09-12T05:03:47.103Z,74.36
2022-09-12T05:06:22.244Z,74.05
2022-09-12T05:08:48.886Z,74.12
2022-09-12T05:11:24.102Z,74.35
2022-09-12T05:13:51.927Z,73.93
2022-09-12T05:16:19.642Z,74.16
2022-09-12T05:18:47.245Z,74.61
2022-09-12T05:21:16.964Z,74.90
2022-09-12T05:23:43.935Z,74.69
2022-09-12T05:26:14.748Z,74.63
2022-09-12T05:28:41.931Z,74.40
2022-09-12T05:31:12.901Z,73.78
2022-09-12T05:33:41.500Z,73.81
2022-09-12T05:36:11.637Z,73.61
2022-09-12T05:38:38.122Z,73.66
2022-09-12T05:41:07.712Z,73.64
2022-09-12T05:43:34.898Z,73.41
2022-09-12T05:46:10.359Z,73.76
2022-09-12T05:48:38.064Z,73.74
2022-09-12T05:51:07.604Z,73.65
2022-09-12T05:53:35.159Z,73.79
2022-09-12T05:56:06.815Z,72.99
2022-09-12T05:58:34.695Z,72.85
2022-09-12T06:01:03.533Z,73.09
2022-09-12T06:03:30.248Z,72.81
2022-09-12T06:05:57.033Z,72.82
2022-09-12T06:08:23.621Z,72.75
2022-09-12T06:10:50.144Z,72.89
2022-09-12T06:13:16.626Z,72.36
2022-09-12T06:15:43.162Z,72.19
2022-09-12T06:18:09.661Z,71.77
2022-09-12T06:20:36.962Z,71.65
2022-09-12T06:23:03.467Z,71.68
2022-09-12T06:25:30.009Z,71.61
2022-09-12T06:27:56.829Z,71.91
2022-09-12T06:30:25.442Z,71.54
2022-09-12T06:32:52.233Z,71.14
2022-09-12T06:35:18.999Z,70.99
2022-09-12T06:37:45.683Z,71.21
2022-09-12T06:40:12.494Z,70.80
2022-09-12T06:42:39.120Z,70.62
2022-09-12T06:45:06.290Z,70.46
2022-09-12T06:47:32.986Z,70.36
2022-09-12T06:49:59.523Z,69.77
2022-09-12T06:52:26.462Z,70.11
2022-09-12T06:54:52.986Z,69.58
2022-09-12T06:57:19.552Z,69.80
2022-09-12T06:59:46.156Z,69.53
2022-09-12T07:02:12.746Z,69.57
2022-09-12T07:04:39.332Z,69.73
2022-09-12T07:07:05.956Z,69.48
2022-09-12T07:09:32.610Z,69.66
2022-09-12T07:11:59.352Z,69.37
2022-09-12T07:14:26.131Z,69.20
2022-09-12T07:16:52.982Z,69.34
2022-09-12T07:19:19.605Z,69.49
2022-09-12T07:21:46.320Z,69.22
2022-09-12T07:24:12.994Z,69.30
2022-09-12T07:26:40.562Z,69.01
2022-09-12T07:29:34.891Z,68.87
2022-09-12T07:31:55.703Z,68.98
2022-09-12T07:34:22.714Z,68.87
2022-09-12T07:36:49.529Z,68.60
2022-09-12T07:39:16.233Z,68.83
2022-09-12T07:41:42.996Z,68.29
2022-09-12T07:44:09.659Z,68.53
2022-09-12T07:46:36.428Z,68.46
2022-09-12T07:49:03.315Z,68.24
2022-09-12T07:51:30.912Z,68.20
2022-09-12T07:53:58.119Z,68.03
2022-09-12T07:56:30.176Z,67.67
2022-09-12T07:58:58.993Z,67.47
2022-09-12T08:01:26.214Z,67.40
2022-09-12T08:03:58.049Z,67.04
2022-09-12T08:06:26.895Z,66.68
2022-09-12T08:08:55.479Z,66.84
2022-09-12T08:11:23.632Z,66.50
2022-09-12T08:13:55.296Z,66.90
2022-09-12T08:16:27.583Z,66.36
2022-09-12T08:18:54.598Z,66.15
2022-09-12T08:21:23.797Z,65.75
2022-09-12T08:23:55.567Z,65.68
2022-09-12T08:26:23.417Z,65.23
2022-09-12T08:28:50.200Z,65.36
2022-09-12T08:31:20.195Z,64.85
2022-09-12T08:33:47.064Z,64.60
2022-09-12T08:36:22.655Z,64.76
2022-09-12T08:38:51.459Z,63.96
2022-09-12T08:41:17.873Z,63.84
2022-09-12T08:44:09.528Z,63.41
2022-09-12T08:47:07.848Z,63.10
2022-09-12T08:49:53.025Z,63.13
2022-09-12T08:52:26.974Z,62.37
2022-09-12T08:54:56.289Z,62.00
2022-09-12T08:57:24.226Z,61.98
2022-09-12T08:59:51.445Z,61.61
2022-09-12T09:02:21.019Z,61.16
2022-09-12T09:04:52.640Z,60.77
2022-09-12T09:07:47.388Z,60.41
2022-09-12T09:10:38.071Z,60.02
2022-09-12T09:13:51.444Z,59.34
2022-09-12T09:16:46.367Z,58.93
2022-09-12T09:19:18.915Z,58.01
2022-09-12T09:21:54.537Z,57.48
2022-09-12T09:24:27.077Z,57.29
2022-09-12T09:27:01.974Z,56.81
2022-09-12T09:29:36.760Z,56.52
2022-09-12T09:32:10.153Z,56.45
2022-09-12T09:34:39.064Z,56.09
2022-09-12T09:37:14.396Z,56.02
2022-09-12T09:39:53.366Z,55.09
2022-09-12T09:42:25.774Z,55.33
2022-09-12T09:44:54.883Z,54.73
2022-09-12T09:47:21.679Z,54.30
2022-09-12T09:49:48.316Z,54.12
2022-09-12T09:52:17.911Z,53.16
2022-09-12T09:54:53.197Z,52.79
2022-09-12T09:57:40.127Z,51.84
2022-09-12T10:00:22.025Z,52.13
2022-09-12T10:03:26.881Z,51.89
2022-09-12T10:05:57.063Z,51.66
2022-09-12T10:08:28.718Z,51.54
2022-09-12T10:11:16.449Z,51.32
2022-09-12T10:13:54.573Z,50.99
2022-09-12T10:16:29.046Z,50.70
2022-09-12T10:18:58.151Z,50.40
2022-09-12T10:21:41.383Z,50.84
2022-09-12T10:24:26.353Z,49.96
2022-09-12T10:26:57.157Z,50.22
2022-09-12T10:29:32.079Z,49.94
2022-09-12T10:32:03.253Z,49.59
2022-09-12T10:34:35.906Z,49.85
2022-09-12T10:37:07.892Z,49.35
2022-09-12T10:39:36.274Z,48.59
2022-09-12T10:42:05.491Z,48.45
2022-09-12T10:44:34.710Z,47.98
2022-09-12T10:47:21.048Z,46.42
2022-09-12T10:49:47.681Z,47.47
2022-09-12T10:52:25.119Z,47.00
2022-09-12T10:54:52.155Z,47.28
2022-09-12T10:57:25.037Z,46.98
2022-09-12T11:00:13.688Z,46.24
2022-09-12T11:02:50.990Z,46.50
2022-09-12T11:05:36.569Z,46.20
2022-09-12T11:08:43.731Z,45.78
2022-09-12T11:11:18.548Z,45.69
2022-09-12T11:13:58.197Z,45.84
2022-09-12T11:16:43.075Z,45.77
2022-09-12T11:19:32.009Z,45.87
2022-09-12T11:22:26.787Z,44.13
2022-09-12T11:25:17.759Z,44.85
2022-09-12T11:28:17.808Z,45.19
2022-09-12T11:31:03.207Z,42.83
2022-09-12T11:33:50.577Z,43.29
2022-09-12T11:36:48.202Z,44.01
2022-09-12T11:39:17.243Z,43.57
2022-09-12T11:41:57.003Z,43.69
2022-09-12T11:44:40.147Z,43.01
2022-09-12T11:47:13.469Z,42.76
2022-09-12T11:49:49.685Z,42.29
2022-09-12T11:52:21.973Z,41.47
2022-09-12T11:55:03.912Z,41.44
2022-09-12T11:57:54.185Z,40.87
2022-09-12T12:00:32.233Z,40.72
2022-09-12T12:03:08.891Z,40.38
2022-09-12T12:06:26.438Z,39.85
2022-09-12T12:08:53.200Z,40.04
2022-09-12T12:11:36.963Z,39.34
2022-09-12T12:14:18.740Z,38.82
2022-09-12T12:16:46.095Z,38.71
2022-09-12T12:19:15.670Z,38.46
2022-09-12T12:21:47.018Z,37.79
2022-09-12T12:24:15.637Z,37.54
2022-09-12T12:27:00.283Z,36.71
2022-09-12T12:29:41.572Z,37.12
2022-09-12T12:32:09.934Z,37.34
2022-09-12T12:34:47.007Z,36.97
2022-09-12T12:37:19.549Z,36.30
2022-09-12T12:39:53.838Z,36.09
2022-09-12T12:42:35.475Z,36.18
2022-09-12T12:45:31.291Z,35.96
2022-09-12T12:48:14.413Z,35.53
2022-09-12T12:50:40.944Z,35.94
2022-09-12T12:53:24.895Z,35.63
2022-09-12T12:55:54.596Z,35.48
2022-09-12T12:58:27.125Z,35.39
2022-09-12T13:01:17.079Z,34.62
2022-09-12T13:03:54.497Z,34.81
2022-09-12T13:06:37.433Z,34.66
2022-09-12T13:09:30.395Z,34.17
2022-09-12T13:12:05.143Z,34.74
2022-09-12T13:14:47.018Z,34.30
2022-09-12T13:17:26.115Z,34.59
2022-09-12T13:20:26.112Z,34.38
2022-09-12T13:22:51.782Z,34.36
2022-09-12T13:25:32.471Z,34.73
2022-09-12T13:28:04.143Z,34.41
2022-09-12T13:30:36.610Z,33.82
2022-09-12T13:33:16.552Z,34.06
2022-09-12T13:35:57.547Z,33.12
2022-09-12T13:38:48.976Z,33.26
2022-09-12T13:41:37.205Z,33.68
2022-09-12T13:44:08.479Z,33.24
2022-09-12T13:46:35.431Z,33.04
2022-09-12T13:49:11.378Z,33.11
2022-09-12T13:51:38.291Z,32.79
2022-09-12T13:54:05.823Z,33.08
2022-09-12T13:56:32.697Z,32.81
2022-09-12T13:59:02.431Z,33.03
2022-09-12T14:01:46.825Z,33.19
2022-09-12T14:04:38.674Z,33.24
2022-09-12T14:07:17.472Z,32.65
2022-09-12T14:09:47.186Z,32.96
2022-09-12T14:12:22.117Z,32.70
2022-09-12T14:14:51.025Z,32.65
2022-09-12T14:17:23.533Z,32.72
2022-09-12T14:19:52.330Z,32.68
2022-09-12T14:22:19.126Z,32.49
2022-09-12T14:24:50.569Z,32.72
2022-09-12T14:27:26.735Z,33.02
2022-09-12T14:30:01.833Z,32.62
2022-09-12T14:32:28.403Z,32.98
2022-09-12T14:35:19.043Z,32.76
2022-09-12T14:37:51.008Z,32.53
2022-09-12T14:40:23.554Z,32.57
2022-09-12T14:42:52.711Z,32.45
2022-09-12T14:45:28.798Z,32.68
2022-09-12T14:47:56.027Z,32.51
2022-09-12T14:50:29.644Z,32.36
2022-09-12T14:53:21.040Z,32.75
2022-09-12T14:55:59.093Z,32.28
2022-09-12T14:58:28.211Z,32.66
2022-09-12T15:00:55.974Z,32.43
2022-09-12T15:03:49.436Z,32.84
2022-09-12T15:06:28.243Z,32.65
2022-09-12T15:08:56.952Z,32.68
2022-09-12T15:11:23.789Z,32.96
2022-09-12T15:13:50.736Z,32.62
2022-09-12T15:16:17.658Z,32.64
2022-09-12T15:18:44.330Z,32.69
2022-09-12T15:21:15.874Z,32.94
2022-09-12T15:23:53.815Z,32.77
2022-09-12T15:26:27.403Z,33.10
2022-09-12T15:28:54.007Z,33.16
2022-09-12T15:31:25.235Z,32.97
2022-09-12T15:33:52.142Z,32.53
2022-09-12T15:36:21.388Z,32.52
2022-09-12T15:38:49.077Z,32.53
2022-09-12T15:41:25.174Z,31.91
2022-09-12T15:43:51.676Z,32.04
2022-09-12T15:46:19.360Z,32.23
2022-09-12T15:48:46.203Z,32.11
2022-09-12T15:51:18.668Z,32.42
2022-09-12T15:53:46.102Z,31.97
2022-09-12T15:56:16.676Z,32.30
2022-09-12T15:58:57.646Z,32.02
2022-09-12T16:01:26.558Z,31.95
2022-09-12T16:03:53.274Z,31.43
2022-09-12T16:06:19.842Z,31.74
2022-09-12T16:08:46.646Z,31.69
2022-09-12T16:11:24.657Z,32.01
2022-09-12T16:13:55.411Z,31.94
2022-09-12T16:16:22.045Z,31.66
2022-09-12T16:18:48.824Z,31.80
2022-09-12T16:21:15.950Z,31.62
2022-09-12T16:23:43.894Z,31.59
2022-09-12T16:26:10.546Z,32.00
2022-09-12T16:28:37.321Z,31.59
2022-09-12T16:31:06.317Z,31.66
2022-09-12T16:33:33.674Z,31.47
2022-09-12T16:36:06.113Z,31.67
2022-09-12T16:38:33.798Z,31.56
2022-09-12T16:41:05.751Z,31.13
2022-09-12T16:43:33.795Z,31.10
2022-09-12T16:46:11.881Z,31.13
2022-09-12T16:48:48.051Z,30.63
2022-09-12T16:51:23.880Z,30.67
2022-09-12T16:53:50.981Z,30.86
2022-09-12T16:56:17.555Z,30.71
2022-09-12T16:58:44.978Z,30.84
2022-09-12T17:01:14.904Z,30.97
2022-09-12T17:03:41.858Z,31.15
2022-09-12T17:06:14.003Z,31.19
2022-09-12T17:08:43.623Z,31.41
2022-09-12T17:11:12.512Z,31.72
2022-09-12T17:14:02.646Z,32.03
2022-09-12T17:16:27.902Z,32.19
2022-09-12T17:18:55.188Z,32.15
2022-09-12T17:21:22.256Z,32.27
2022-09-12T17:23:49.476Z,33.05
2022-09-12T17:26:16.319Z,33.39
2022-09-12T17:28:43.904Z,33.48
2022-09-12T17:31:13.760Z,33.69
2022-09-12T17:33:41.268Z,33.79
2022-09-12T17:36:11.111Z,34.78
2022-09-12T17:38:39.654Z,34.88
2022-09-12T17:41:15.998Z,34.96
2022-09-12T17:43:43.881Z,35.60
2022-09-12T17:46:10.488Z,35.94
2022-09-12T17:48:37.246Z,36.62
2022-09-12T17:51:14.238Z,36.79
2022-09-12T17:53:41.655Z,37.36
2022-09-12T17:56:09.934Z,37.71
2022-09-12T17:58:37.064Z,38.34
2022-09-12T18:01:28.987Z,39.01
2022-09-12T18:03:57.135Z,39.35
2022-09-12T18:06:24.579Z,39.74
2022-09-12T18:08:51.263Z,40.22
2022-09-12T18:11:17.825Z,41.07
2022-09-12T18:13:44.536Z,41.77
2022-09-12T18:16:12.825Z,42.41
2022-09-12T18:18:39.777Z,42.73
2022-09-12T18:21:08.369Z,43.24
2022-09-12T18:23:35.388Z,43.51
2022-09-12T18:26:04.868Z,43.66
2022-09-12T18:28:35.921Z,43.74
2022-09-12T18:31:02.966Z,44.07
2022-09-12T18:33:29.613Z,44.23
2022-09-12T18:35:56.251Z,44.62
2022-09-12T18:38:22.773Z,45.11
2022-09-12T18:40:49.266Z,45.36
2022-09-12T18:43:15.856Z,45.76
2022-09-12T18:45:42.365Z,46.57
2022-09-12T18:48:09.330Z,46.29
2022-09-12T18:50:35.808Z,46.92
2022-09-12T18:53:02.279Z,46.98
2022-09-12T18:55:31.790Z,47.60
2022-09-12T18:57:58.251Z,48.10
2022-09-12T19:00:24.744Z,48.11
2022-09-12T19:02:51.385Z,48.64
2022-09-12T19:05:18.202Z,48.88
2022-09-12T19:07:44.753Z,48.98
2022-09-12T19:10:11.940Z,49.21
2022-09-12T19:12:38.417Z,49.07
2022-09-12T19:15:05.196Z,49.93
2022-09-12T19:17:31.724Z,49.99
2022-09-12T19:19:58.328Z,49.90
2022-09-12T19:22:24.784Z,50.20
2022-09-12T19:24:51.297Z,50.45
2022-09-12T19:27:17.812Z,50.71
2022-09-12T19:29:44.413Z,51.46
2022-09-12T19:32:11.243Z,50.79
2022-09-12T19:34:37.697Z,51.35
2022-09-12T19:37:04.537Z,51.75
2022-09-12T19:39:31.478Z,52.05
2022-09-12T19:41:58.137Z,52.32
2022-09-12T19:44:27.025Z,52.58
2022-09-12T19:46:53.519Z,52.46
2022-09-12T19:49:19.958Z,52.47
2022-09-12T19:51:46.451Z,52.65
2022-09-12T19:54:13.051Z,53.18
2022-09-12T19:56:39.575Z,53.81
2022-09-12T19:59:06.062Z,53.92
2022-09-12T20:01:33.086Z,53.73
2022-09-12T20:03:59.617Z,54.25
2022-09-12T20:06:27.306Z,54.62
2022-09-12T20:08:54.698Z,54.80
2022-09-12T20:11:23.292Z,54.56
2022-09-12T20:13:50.090Z,55.15
2022-09-12T20:16:23.230Z,55.25
2022-09-12T20:18:58.281Z,55.69
2022-09-12T20:21:31.620Z,55.94
2022-09-12T20:24:10.231Z,55.56
2022-09-12T20:26:36.871Z,56.16
2022-09-12T20:29:05.292Z,56.05
2022-09-12T20:31:33.328Z,56.07
2022-09-12T20:33:59.978Z,56.39
2022-09-12T20:36:26.864Z,56.88
2022-09-12T20:38:59.838Z,57.07
2022-09-12T20:41:28.942Z,57.16
2022-09-12T20:43:56.940Z,57.72
2022-09-12T20:46:24.855Z,57.95
2022-09-12T20:48:51.790Z,57.92
2022-09-12T20:51:19.354Z,57.94
2022-09-12T20:53:46.171Z,57.93
2022-09-12T20:56:12.801Z,58.26
2022-09-12T20:58:43.527Z,58.13
2022-09-12T21:01:12.299Z,58.38
2022-09-12T21:03:40.316Z,58.96
2022-09-12T21:06:08.029Z,59.29
2022-09-12T21:08:36.043Z,59.29
2022-09-12T21:11:03.324Z,59.64
2022-09-12T21:13:30.197Z,59.25
2022-09-12T21:16:01.768Z,59.59
2022-09-12T21:18:28.653Z,59.60
2022-09-12T21:20:55.878Z,59.99
2022-09-12T21:23:23.768Z,59.81
2022-09-12T21:25:52.559Z,59.89
2022-09-12T21:28:20.158Z,59.71
2022-09-12T21:30:50.623Z,60.10
2022-09-12T21:33:19.079Z,60.44
2022-09-12T21:35:47.291Z,60.21
2022-09-12T21:38:18.554Z,60.18
2022-09-12T21:40:45.787Z,60.56
2022-09-12T21:43:13.083Z,60.48
2022-09-12T21:45:40.475Z,60.65
2022-09-12T21:48:07.746Z,61.16
2022-09-12T21:50:34.563Z,60.96
2022-09-12T21:53:01.301Z,61.05
2022-09-12T21:55:27.948Z,61.41
2022-09-12T21:57:55.299Z,61.40
2022-09-12T22:00:22.758Z,61.71
2022-09-12T22:02:49.868Z,61.49
2022-09-12T22:05:17.182Z,61.73
2022-09-12T22:07:43.868Z,62.19
2022-09-12T22:10:10.881Z,62.39
2022-09-12T22:12:37.551Z,62.24
2022-09-12T22:15:22.875Z,62.85
2022-09-12T22:17:51.213Z,62.67
2022-09-12T22:20:17.883Z,62.74
2022-09-12T22:23:03.057Z,62.72
2022-09-12T22:25:29.669Z,63.14
2022-09-12T22:27:56.311Z,63.34
2022-09-12T22:30:23.428Z,63.38
2022-09-12T22:32:51.124Z,63.57
2022-09-12T22:35:18.419Z,63.26
2022-09-12T22:37:46.577Z,63.20
2022-09-12T22:40:13.218Z,63.46
2022-09-12T22:42:39.745Z,63.59
2022-09-12T22:45:07.641Z,63.11
2022-09-12T22:47:34.110Z,63.53
2022-09-12T22:50:00.632Z,63.97
2022-09-12T22:52:27.146Z,63.85
2022-09-12T22:54:53.747Z,64.24
2022-09-12T22:57:20.194Z,63.95
2022-09-12T22:59:46.737Z,64.13
2022-09-12T23:02:13.304Z,64.05
2022-09-12T23:04:40.005Z,64.02
2022-09-12T23:07:06.581Z,64.34
2022-09-12T23:09:35.398Z,64.45
2022-09-12T23:12:02.444Z,64.54
2022-09-12T23:14:28.916Z,64.35
2022-09-12T23:16:55.563Z,64.19
2022-09-12T23:19:22.115Z,64.68
2022-09-12T23:21:48.712Z,64.65
2022-09-12T23:24:15.361Z,64.97
2022-09-12T23:26:41.877Z,65.14
2022-09-12T23:29:09.207Z,65.23
2022-09-12T23:31:36.261Z,64.76
2022-09-12T23:34:05.815Z,65.17
2022-09-12T23:36:33.426Z,65.09
2022-09-12T23:39:00.004Z,65.57
2022-09-12T23:41:26.641Z,65.62
2022-09-12T23:43:53.190Z,65.45
2022-09-12T23:46:20.620Z,65.65
2022-09-12T23:48:48.095Z,65.76
2022-09-12T23:51:15.138Z,65.93
2022-09-12T23:53:42.010Z,66.02
2022-09-12T23:56:08.825Z,65.83
2022-09-12T23:58:35.366Z,65.86
